createdAt,value
2023-04-15T00:01:38.055Z,83.97
2023-04-15T00:04:05.128Z,84.22
2023-04-15T00:06:32.024Z,84.59
2023-04-15T00:08:59.127Z,84.99
2023-04-15T00:11:26.124Z,84.80
2023-04-15T00:13:52.804Z,84.83
2023-04-15T00:16:19.494Z,84.52
2023-04-15T00:18:46.376Z,84.90
2023-04-15T00:21:13.246Z,85.06
2023-04-15T00:23:40.049Z,84.89
2023-04-15T00:26:07.582Z,84.75
2023-04-15T00:28:34.461Z,84.59
2023-04-15T00:31:03.353Z,84.66
2023-04-15T00:33:30.085Z,84.56
2023-04-15T00:35:57.139Z,84.48
2023-04-15T00:38:24.327Z,84.94
2023-04-15T00:40:51.058Z,85.17
2023-04-15T00:43:17.840Z,85.09
2023-04-15T00:45:44.685Z,85.16
2023-04-15T00:48:12.027Z,85.14
2023-04-15T00:50:39.042Z,85.65
2023-04-15T00:53:05.889Z,85.85
2023-04-15T00:55:32.685Z,85.52
2023-04-15T00:57:59.477Z,85.45
2023-04-15T01:00:26.868Z,85.31
2023-04-15T01:02:53.865Z,85.88
2023-04-15T01:05:20.794Z,85.74
2023-04-15T01:07:48.847Z,86.03
2023-04-15T01:10:15.806Z,86.17
2023-04-15T01:12:43.369Z,86.58
2023-04-15T01:15:11.212Z,86.20
2023-04-15T01:17:38.615Z,85.20
2023-04-15T01:20:10.186Z,84.79
2023-04-15T01:22:38.523Z,85.57
2023-04-15T01:25:17.085Z,86.20
2023-04-15T01:29:03.492Z,86.34
2023-04-15T01:31:30.725Z,86.67
2023-04-15T01:33:57.640Z,86.33
2023-04-15T01:36:24.459Z,86.82
2023-04-15T01:38:53.999Z,86.96
2023-04-15T01:41:27.146Z,86.99
2023-04-15T01:43:54.638Z,87.53
2023-04-15T01:46:21.552Z,87.50
2023-04-15T01:48:48.446Z,87.14
2023-04-15T01:51:15.216Z,87.21
2023-04-15T01:53:42.099Z,86.74
2023-04-15T01:56:34.144Z,86.24
2023-04-15T01:59:01.926Z,85.69
2023-04-15T02:01:28.925Z,85.75
2023-04-15T02:03:59.279Z,86.37
2023-04-15T02:06:26.043Z,86.81
2023-04-15T02:08:55.428Z,87.14
2023-04-15T02:11:23.269Z,87.25
2023-04-15T02:13:50.385Z,87.56
2023-04-15T02:16:19.450Z,87.24
2023-04-15T02:18:47.108Z,86.81
2023-04-15T02:21:14.223Z,87.01
2023-04-15T02:23:41.156Z,87.50
2023-04-15T02:26:08.311Z,87.94
2023-04-15T02:28:35.899Z,87.11
2023-04-15T02:31:06.657Z,86.58
2023-04-15T02:33:33.876Z,86.90
2023-04-15T02:36:01.135Z,85.00
2023-04-15T02:38:28.589Z,83.11
2023-04-15T02:40:55.540Z,83.83
2023-04-15T02:43:22.400Z,83.84
2023-04-15T02:45:51.349Z,83.81
2023-04-15T02:48:19.810Z,84.09
2023-04-15T02:50:47.145Z,83.74
2023-04-15T02:53:15.107Z,83.86
2023-04-15T02:55:42.972Z,83.80
2023-04-15T02:58:10.026Z,84.06
2023-04-15T03:00:36.923Z,84.15
2023-04-15T03:03:06.101Z,84.07
2023-04-15T03:05:33.140Z,84.29
2023-04-15T03:08:01.470Z,84.49
2023-04-15T03:10:28.703Z,84.47
2023-04-15T03:12:55.757Z,84.41
2023-04-15T03:15:23.914Z,84.56
2023-04-15T03:17:53.057Z,84.77
2023-04-15T03:20:20.442Z,84.78
2023-04-15T03:22:48.426Z,84.71
2023-04-15T03:25:15.746Z,84.99
2023-04-15T03:27:43.220Z,84.79
2023-04-15T03:30:11.629Z,85.04
2023-04-15T03:32:39.306Z,85.89
2023-04-15T03:35:08.310Z,85.55
2023-04-15T03:37:35.020Z,86.12
2023-04-15T03:40:02.675Z,86.31
2023-04-15T03:42:29.439Z,86.25
2023-04-15T03:44:56.311Z,86.25
2023-04-15T03:47:23.453Z,86.52
2023-04-15T03:49:50.159Z,85.67
2023-04-15T03:52:16.913Z,84.87
2023-04-15T03:54:43.703Z,85.93
2023-04-15T03:57:10.573Z,86.29
2023-04-15T03:59:37.260Z,86.37
2023-04-15T04:02:04.110Z,86.21
2023-04-15T04:04:31.074Z,85.99
2023-04-15T04:06:57.875Z,83.97
2023-04-15T04:09:24.698Z,84.64
2023-04-15T04:11:51.453Z,85.37
2023-04-15T04:14:18.115Z,84.30
2023-04-15T04:16:45.401Z,84.16
2023-04-15T04:19:12.312Z,84.70
2023-04-15T04:21:39.736Z,86.62
2023-04-15T04:24:06.490Z,87.86
2023-04-15T04:26:33.209Z,87.91
2023-04-15T04:29:00.096Z,87.85
2023-04-15T04:31:27.346Z,88.86
2023-04-15T04:33:54.071Z,87.14
2023-04-15T04:36:21.088Z,85.43
2023-04-15T04:38:47.767Z,85.48
2023-04-15T04:41:14.540Z,85.46
2023-04-15T04:43:41.276Z,86.57
2023-04-15T04:46:08.067Z,87.02
2023-04-15T04:48:34.879Z,85.87
2023-04-15T04:51:02.071Z,86.74
2023-04-15T04:53:28.827Z,87.51
2023-04-15T04:55:55.768Z,88.12
2023-04-15T04:58:22.412Z,88.34
2023-04-15T05:00:49.267Z,88.09
2023-04-15T05:03:16.267Z,88.38
2023-04-15T05:05:43.511Z,88.22
2023-04-15T05:08:10.164Z,86.52
2023-04-15T05:10:36.962Z,87.39
2023-04-15T05:13:03.895Z,87.59
2023-04-15T05:15:30.731Z,88.48
2023-04-15T05:17:57.666Z,88.79
2023-04-15T05:20:24.456Z,88.55
2023-04-15T05:22:51.188Z,88.51
2023-04-15T05:25:18.134Z,88.01
2023-04-15T05:27:44.870Z,87.84
2023-04-15T05:30:13.387Z,88.18
2023-04-15T05:32:40.932Z,87.81
2023-04-15T05:35:08.618Z,86.93
2023-04-15T05:37:35.596Z,88.39
2023-04-15T05:40:02.436Z,88.67
2023-04-15T05:42:29.135Z,88.84
2023-04-15T05:44:56.284Z,88.32
2023-04-15T05:47:23.004Z,88.09
2023-04-15T05:49:49.792Z,88.35
2023-04-15T05:52:16.754Z,88.39
2023-04-15T05:54:44.132Z,88.25
2023-04-15T05:57:11.000Z,88.18
2023-04-15T05:59:38.934Z,88.59
2023-04-15T06:02:06.365Z,89.10
2023-04-15T06:04:33.268Z,89.47
2023-04-15T06:07:00.040Z,88.90
2023-04-15T06:09:26.976Z,88.78
2023-04-15T06:11:53.670Z,88.60
2023-04-15T06:14:21.729Z,88.80
2023-04-15T06:16:48.416Z,88.54
2023-04-15T06:19:15.998Z,88.75
2023-04-15T06:21:42.902Z,88.54
2023-04-15T06:24:09.633Z,88.71
2023-04-15T06:26:36.373Z,89.11
2023-04-15T06:29:03.305Z,89.03
2023-04-15T06:31:30.745Z,88.81
2023-04-15T06:33:57.453Z,89.13
2023-04-15T06:36:24.257Z,88.90
2023-04-15T06:38:51.155Z,89.15
2023-04-15T06:41:18.181Z,88.91
2023-04-15T06:43:44.960Z,88.63
2023-04-15T06:46:11.822Z,87.50
2023-04-15T06:48:38.956Z,85.38
2023-04-15T06:51:06.226Z,86.14
2023-04-15T06:53:32.981Z,86.05
2023-04-15T06:55:59.848Z,86.10
2023-04-15T06:58:26.597Z,87.45
2023-04-15T07:00:53.363Z,84.48
2023-04-15T07:03:20.336Z,84.52
2023-04-15T07:05:47.236Z,86.54
2023-04-15T07:08:14.142Z,86.03
2023-04-15T07:10:41.576Z,83.64
2023-04-15T07:13:08.991Z,83.66
2023-04-15T07:15:35.970Z,84.80
2023-04-15T07:18:02.893Z,79.53
2023-04-15T07:20:29.772Z,82.19
2023-04-15T07:22:56.828Z,81.97
2023-04-15T07:25:23.590Z,85.66
2023-04-15T07:27:50.650Z,81.18
2023-04-15T07:30:17.385Z,84.65
2023-04-15T07:32:44.111Z,83.10
2023-04-15T07:35:11.700Z,83.43
2023-04-15T07:37:38.405Z,83.71
2023-04-15T07:40:07.192Z,83.56
2023-04-15T07:42:34.707Z,83.87
2023-04-15T07:45:01.637Z,83.62
2023-04-15T07:47:28.424Z,83.50
2023-04-15T07:49:55.602Z,82.12
2023-04-15T07:52:22.477Z,81.36
2023-04-15T07:54:49.305Z,79.80
2023-04-15T07:57:17.120Z,80.54
2023-04-15T07:59:44.013Z,78.73
2023-04-15T08:02:12.042Z,79.29
2023-04-15T08:04:39.501Z,76.82
2023-04-15T08:07:06.331Z,78.82
2023-04-15T08:09:33.201Z,74.72
2023-04-15T08:12:00.007Z,76.48
2023-04-15T08:14:27.143Z,77.31
2023-04-15T08:16:53.916Z,78.86
2023-04-15T08:19:21.283Z,76.86
2023-04-15T08:21:48.028Z,76.92
2023-04-15T08:24:15.689Z,76.45
2023-04-15T08:26:42.853Z,76.85
2023-04-15T08:29:09.575Z,76.98
2023-04-15T08:31:36.325Z,77.69
2023-04-15T08:34:03.810Z,78.91
2023-04-15T08:36:32.261Z,74.62
2023-04-15T08:39:01.551Z,70.30
2023-04-15T08:41:34.808Z,69.89
2023-04-15T08:44:04.976Z,69.14
2023-04-15T08:46:36.020Z,67.33
2023-04-15T08:49:09.418Z,65.06
2023-04-15T08:51:36.751Z,64.83
2023-04-15T08:54:04.545Z,66.50
2023-04-15T08:56:35.984Z,66.65
2023-04-15T08:59:03.880Z,67.10
2023-04-15T09:01:32.314Z,68.66
2023-04-15T09:03:59.804Z,66.76
2023-04-15T09:06:27.126Z,67.26
2023-04-15T09:08:53.959Z,68.41
2023-04-15T09:11:22.573Z,68.09
2023-04-15T09:13:49.839Z,63.71
2023-04-15T09:16:16.532Z,67.28
2023-04-15T09:18:43.401Z,65.06
2023-04-15T09:21:15.822Z,66.86
2023-04-15T09:23:56.275Z,64.34
2023-04-15T09:26:37.854Z,62.98
2023-04-15T09:29:09.873Z,64.27
2023-04-15T09:31:37.834Z,65.76
2023-04-15T09:34:04.817Z,64.80
2023-04-15T09:36:52.281Z,65.67
2023-04-15T09:39:19.350Z,66.59
2023-04-15T09:41:46.089Z,64.67
2023-04-15T09:44:26.608Z,62.71
2023-04-15T09:46:53.650Z,63.62
2023-04-15T09:49:21.100Z,64.88
2023-04-15T09:52:03.986Z,64.35
2023-04-15T09:54:37.324Z,64.50
2023-04-15T09:57:10.383Z,62.20
2023-04-15T09:59:37.388Z,62.81
2023-04-15T10:02:07.829Z,61.73
2023-04-15T10:04:38.387Z,63.91
2023-04-15T10:07:06.551Z,62.72
2023-04-15T10:09:35.445Z,63.98
2023-04-15T10:12:04.928Z,64.61
2023-04-15T10:14:35.894Z,65.39
2023-04-15T10:17:05.300Z,64.15
2023-04-15T10:19:33.866Z,63.73
2023-04-15T10:22:00.923Z,64.19
2023-04-15T10:24:28.440Z,61.70
2023-04-15T10:26:55.699Z,62.91
2023-04-15T10:29:25.592Z,63.66
2023-04-15T10:31:52.798Z,60.50
2023-04-15T10:34:19.799Z,62.17
2023-04-15T10:36:47.183Z,63.35
2023-04-15T10:39:43.427Z,63.24
2023-04-15T10:42:15.501Z,64.61
2023-04-15T10:44:44.746Z,60.22
2023-04-15T10:47:19.155Z,61.16
2023-04-15T10:49:57.159Z,63.07
2023-04-15T10:52:27.579Z,61.65
2023-04-15T10:55:03.760Z,60.32
2023-04-15T10:57:40.744Z,61.45
2023-04-15T11:00:17.990Z,61.61
2023-04-15T11:03:11.023Z,63.14
2023-04-15T11:05:51.650Z,60.84
2023-04-15T11:08:18.898Z,61.14
2023-04-15T11:10:45.570Z,61.20
2023-04-15T11:13:12.446Z,62.33
2023-04-15T11:15:45.033Z,61.57
2023-04-15T11:18:23.245Z,62.52
2023-04-15T11:20:56.603Z,60.31
2023-04-15T11:23:38.797Z,59.10
2023-04-15T11:26:11.787Z,58.51
2023-04-15T11:28:41.253Z,59.78
2023-04-15T11:31:11.405Z,61.63
2023-04-15T11:33:59.427Z,60.00
2023-04-15T11:36:27.931Z,59.88
2023-04-15T11:38:55.651Z,60.53
2023-04-15T11:41:23.545Z,61.64
2023-04-15T11:43:51.099Z,60.92
2023-04-15T11:46:18.263Z,61.71
2023-04-15T11:48:46.929Z,61.06
2023-04-15T11:51:14.697Z,61.87
2023-04-15T11:53:47.175Z,61.58
2023-04-15T11:56:25.208Z,62.87
2023-04-15T11:58:59.682Z,63.44
2023-04-15T12:01:35.175Z,62.65
2023-04-15T12:04:03.908Z,61.52
2023-04-15T12:06:39.092Z,60.73
2023-04-15T12:09:16.810Z,61.53
2023-04-15T12:11:51.419Z,60.55
2023-04-15T12:14:32.160Z,61.58
2023-04-15T12:17:01.489Z,62.67
2023-04-15T12:19:39.587Z,63.40
2023-04-15T12:22:11.366Z,61.52
2023-04-15T12:24:39.418Z,61.25
2023-04-15T12:27:11.431Z,63.01
2023-04-15T12:29:42.047Z,62.82
2023-04-15T12:32:16.303Z,63.14
2023-04-15T12:34:54.593Z,62.74
2023-04-15T12:37:21.790Z,62.75
2023-04-15T12:39:51.875Z,61.93
2023-04-15T12:42:19.107Z,64.09
2023-04-15T12:44:49.429Z,62.18
2023-04-15T12:47:16.245Z,62.03
2023-04-15T12:49:43.361Z,61.47
2023-04-15T12:52:10.274Z,62.89
2023-04-15T12:54:37.263Z,61.52
2023-04-15T12:57:06.959Z,61.38
2023-04-15T12:59:34.271Z,61.57
2023-04-15T13:02:02.867Z,60.59
2023-04-15T13:04:33.351Z,60.15
2023-04-15T13:07:00.325Z,60.26
2023-04-15T13:09:27.204Z,60.52
2023-04-15T13:11:54.665Z,61.64
2023-04-15T13:14:21.860Z,61.86
2023-04-15T13:16:48.731Z,62.05
2023-04-15T13:19:15.916Z,61.81
2023-04-15T13:21:42.808Z,64.03
2023-04-15T13:24:09.856Z,59.26
2023-04-15T13:26:36.793Z,58.81
2023-04-15T13:29:04.684Z,59.90
2023-04-15T13:31:31.588Z,61.24
2023-04-15T13:33:58.404Z,61.37
2023-04-15T13:36:26.488Z,62.95
2023-04-15T13:38:53.297Z,60.01
2023-04-15T13:41:21.261Z,60.43
2023-04-15T13:43:48.142Z,61.86
2023-04-15T13:46:15.008Z,63.51
2023-04-15T13:48:42.231Z,62.87
2023-04-15T13:51:09.040Z,61.87
2023-04-15T13:53:38.530Z,63.26
2023-04-15T13:56:09.782Z,64.82
2023-04-15T13:58:37.887Z,64.88
2023-04-15T14:01:06.791Z,66.41
2023-04-15T14:03:37.493Z,66.80
2023-04-15T14:06:06.429Z,68.45
2023-04-15T14:08:33.530Z,67.27
2023-04-15T14:11:00.673Z,68.31
2023-04-15T14:13:27.422Z,66.80
2023-04-15T14:15:54.446Z,66.90
2023-04-15T14:18:21.730Z,68.08
2023-04-15T14:20:48.614Z,70.02
2023-04-15T14:23:15.371Z,73.19
2023-04-15T14:25:42.285Z,75.94
2023-04-15T14:28:09.166Z,77.95
2023-04-15T14:30:36.176Z,81.20
2023-04-15T14:33:03.932Z,80.46
2023-04-15T14:35:31.568Z,80.88
2023-04-15T14:37:58.496Z,81.56
2023-04-15T14:40:25.340Z,81.45
2023-04-15T14:42:52.224Z,83.07
2023-04-15T14:45:19.173Z,81.32
2023-04-15T14:47:46.704Z,83.44
2023-04-15T14:50:13.598Z,83.33
2023-04-15T14:52:40.472Z,82.41
2023-04-15T14:55:12.489Z,83.17
2023-04-15T14:57:41.250Z,83.96
2023-04-15T15:00:10.655Z,84.09
2023-04-15T15:02:40.469Z,83.25
2023-04-15T15:05:08.883Z,82.95
2023-04-15T15:07:37.166Z,82.74
2023-04-15T15:10:05.027Z,81.86
2023-04-15T15:12:33.123Z,81.94
2023-04-15T15:15:00.473Z,81.82
2023-04-15T15:17:28.375Z,81.07
2023-04-15T15:19:55.200Z,80.71
2023-04-15T15:22:22.000Z,80.32
2023-04-15T15:24:48.813Z,80.12
2023-04-15T15:27:15.624Z,80.72
2023-04-15T15:29:42.495Z,81.17
2023-04-15T15:32:09.268Z,81.21
2023-04-15T15:34:36.103Z,81.94
2023-04-15T15:37:03.062Z,79.80
2023-04-15T15:39:30.035Z,80.54
2023-04-15T15:41:56.781Z,81.32
2023-04-15T15:44:23.572Z,81.67
2023-04-15T15:46:51.213Z,82.48
2023-04-15T15:49:18.570Z,80.63
2023-04-15T15:51:45.997Z,77.94
2023-04-15T15:54:13.207Z,76.50
2023-04-15T15:56:39.970Z,78.10
2023-04-15T15:59:07.079Z,78.95
2023-04-15T16:01:34.199Z,79.34
2023-04-15T16:04:01.351Z,80.72
2023-04-15T16:06:28.794Z,80.13
2023-04-15T16:08:55.662Z,79.06
2023-04-15T16:11:23.340Z,78.35
2023-04-15T16:13:50.112Z,79.80
2023-04-15T16:16:17.064Z,80.29
2023-04-15T16:18:43.870Z,78.26
2023-04-15T16:21:11.130Z,78.67
2023-04-15T16:23:38.427Z,79.64
2023-04-15T16:26:05.318Z,78.56
2023-04-15T16:28:32.196Z,78.22
2023-04-15T16:30:59.533Z,78.70
2023-04-15T16:33:27.000Z,77.85
2023-04-15T16:35:53.831Z,75.65
2023-04-15T16:38:21.718Z,76.49
2023-04-15T16:40:48.516Z,76.12
2023-04-15T16:43:15.360Z,74.12
2023-04-15T16:45:44.472Z,73.48
2023-04-15T16:48:11.368Z,74.37
2023-04-15T16:50:38.224Z,74.84
2023-04-15T16:53:05.097Z,74.37
2023-04-15T16:55:31.859Z,75.03
2023-04-15T16:58:02.156Z,75.16
2023-04-15T17:00:31.769Z,75.96
2023-04-15T17:03:00.212Z,76.92
2023-04-15T17:05:31.229Z,77.00
2023-04-15T17:07:58.107Z,77.36
2023-04-15T17:10:24.916Z,76.58
2023-04-15T17:12:52.707Z,77.10
2023-04-15T17:15:21.447Z,76.66
2023-04-15T17:17:48.394Z,78.20
2023-04-15T17:20:17.415Z,77.80
2023-04-15T17:22:44.287Z,78.13
2023-04-15T17:25:11.208Z,78.35
2023-04-15T17:27:38.712Z,79.67
2023-04-15T17:30:07.242Z,79.92
2023-04-15T17:32:34.970Z,79.06
2023-04-15T17:35:06.047Z,79.57
2023-04-15T17:37:33.858Z,79.78
2023-04-15T17:40:00.718Z,79.83
2023-04-15T17:42:27.691Z,80.33
2023-04-15T17:44:54.533Z,80.15
2023-04-15T17:47:21.542Z,80.68
2023-04-15T17:49:48.530Z,81.09
2023-04-15T17:52:15.308Z,81.51
2023-04-15T17:54:42.234Z,81.28
2023-04-15T17:57:09.400Z,81.52
2023-04-15T17:59:36.297Z,81.81
2023-04-15T18:02:03.102Z,81.70
2023-04-15T18:04:30.188Z,80.93
2023-04-15T18:06:57.060Z,81.25
2023-04-15T18:09:23.863Z,81.72
2023-04-15T18:11:50.622Z,81.15
2023-04-15T18:14:27.075Z,81.38
2023-04-15T18:17:01.238Z,81.30
2023-04-15T18:19:28.151Z,81.73
2023-04-15T18:21:55.001Z,82.07
2023-04-15T18:24:22.809Z,80.87
2023-04-15T18:26:49.735Z,80.76
2023-04-15T18:29:16.693Z,80.65
2023-04-15T18:31:44.034Z,81.31
2023-04-15T18:34:11.014Z,80.47
2023-04-15T18:36:37.899Z,80.92
2023-04-15T18:39:05.539Z,81.64
2023-04-15T18:41:32.730Z,80.25
2023-04-15T18:43:59.475Z,80.64
2023-04-15T18:46:26.470Z,81.56
2023-04-15T18:48:53.276Z,82.18
2023-04-15T18:51:20.326Z,80.98
2023-04-15T18:53:47.134Z,81.65
2023-04-15T18:56:14.197Z,82.21
2023-04-15T18:59:27.792Z,82.60
2023-04-15T19:01:27.998Z,82.40
2023-04-15T19:03:54.867Z,82.27
2023-04-15T19:06:22.384Z,81.87
2023-04-15T19:08:49.189Z,82.01
2023-04-15T19:11:16.072Z,82.00
2023-04-15T19:13:42.863Z,82.81
2023-04-15T19:16:10.166Z,82.58
2023-04-15T19:18:37.418Z,82.64
2023-04-15T19:21:04.445Z,82.36
2023-04-15T19:23:32.019Z,82.09
2023-04-15T19:25:58.877Z,82.95
2023-04-15T19:28:28.246Z,82.11
2023-04-15T19:30:55.320Z,81.89
2023-04-15T19:33:22.232Z,81.89
2023-04-15T19:35:50.232Z,82.30
2023-04-15T19:38:17.229Z,82.37
2023-04-15T19:40:44.324Z,82.75
2023-04-15T19:43:11.084Z,82.81
2023-04-15T19:45:37.897Z,82.52
2023-04-15T19:48:06.304Z,83.01
2023-04-15T19:50:33.271Z,83.25
2023-04-15T19:53:01.032Z,83.52
2023-04-15T19:55:27.881Z,83.28
2023-04-15T19:57:54.699Z,82.18
2023-04-15T20:00:21.804Z,82.40
2023-04-15T20:02:48.852Z,83.41
2023-04-15T20:05:15.815Z,83.25
2023-04-15T20:07:43.338Z,82.87
2023-04-15T20:10:13.185Z,82.56
2023-04-15T20:12:50.673Z,83.11
2023-04-15T20:15:21.615Z,83.31
2023-04-15T20:17:48.494Z,83.53
2023-04-15T20:20:15.389Z,83.33
2023-04-15T20:22:42.405Z,82.77
2023-04-15T20:25:09.612Z,82.46
2023-04-15T20:27:36.586Z,82.14
2023-04-15T20:30:05.267Z,82.28
2023-04-15T20:32:36.128Z,82.15
2023-04-15T20:35:06.946Z,81.72
2023-04-15T20:37:34.156Z,80.72
2023-04-15T20:40:01.776Z,81.30
2023-04-15T20:42:32.714Z,81.42
2023-04-15T20:44:59.753Z,79.53
2023-04-15T20:47:26.649Z,79.72
2023-04-15T20:49:54.308Z,79.19
2023-04-15T20:52:21.271Z,80.34
2023-04-15T20:54:48.188Z,81.29
2023-04-15T20:57:14.975Z,80.69
2023-04-15T20:59:41.875Z,79.86
2023-04-15T21:02:08.827Z,80.24
2023-04-15T21:04:36.021Z,80.50
2023-04-15T21:07:02.778Z,80.73
2023-04-15T21:09:29.609Z,79.89
2023-04-15T21:12:01.671Z,79.64
2023-04-15T21:14:29.316Z,80.30
2023-04-15T21:16:58.195Z,80.25
2023-04-15T21:19:25.017Z,80.21
2023-04-15T21:21:52.414Z,79.83
2023-04-15T21:24:19.341Z,80.85
2023-04-15T21:26:46.086Z,81.15
2023-04-15T21:29:13.241Z,79.18
2023-04-15T21:31:40.567Z,78.78
2023-04-15T21:34:07.610Z,79.38
2023-04-15T21:36:34.414Z,79.77
2023-04-15T21:39:01.264Z,80.38
2023-04-15T21:41:28.192Z,81.14
2023-04-15T21:43:56.410Z,81.12
2023-04-15T21:46:25.737Z,80.31
2023-04-15T21:49:00.196Z,79.08
2023-04-15T21:51:27.796Z,79.35
2023-04-15T21:53:54.928Z,79.58
2023-04-15T21:56:24.316Z,79.34
2023-04-15T21:58:59.445Z,77.66
2023-04-15T22:01:26.804Z,78.62
2023-04-15T22:03:54.144Z,79.12
2023-04-15T22:06:21.490Z,79.77
2023-04-15T22:08:57.040Z,79.73
2023-04-15T22:11:29.737Z,78.02
2023-04-15T22:13:57.935Z,78.86
2023-04-15T22:16:26.285Z,78.53
2023-04-15T22:18:53.668Z,79.37
2023-04-15T22:21:20.770Z,78.58
2023-04-15T22:23:48.794Z,78.86
2023-04-15T22:26:15.897Z,78.57
2023-04-15T22:28:42.805Z,78.35
2023-04-15T22:31:10.018Z,79.69
2023-04-15T22:33:37.078Z,79.96
2023-04-15T22:36:03.929Z,80.06
2023-04-15T22:38:31.076Z,79.61
2023-04-15T22:40:58.499Z,79.83
2023-04-15T22:43:26.145Z,80.41
2023-04-15T22:45:55.084Z,79.36
2023-04-15T22:48:22.275Z,78.07
2023-04-15T22:50:49.465Z,77.22
2023-04-15T22:53:17.461Z,78.78
2023-04-15T22:55:48.305Z,75.62
2023-04-15T22:58:15.739Z,77.38
2023-04-15T23:00:42.585Z,77.42
2023-04-15T23:03:09.616Z,78.16
2023-04-15T23:05:36.800Z,77.85
2023-04-15T23:08:03.684Z,77.84
2023-04-15T23:10:30.406Z,77.30
2023-04-15T23:12:57.196Z,76.24
2023-04-15T23:15:24.118Z,76.43
2023-04-15T23:17:51.234Z,76.41
2023-04-15T23:20:18.039Z,75.06
2023-04-15T23:22:45.166Z,75.36
2023-04-15T23:25:11.901Z,76.16
2023-04-15T23:27:38.690Z,77.25
2023-04-15T23:30:06.343Z,77.87
2023-04-15T23:32:33.290Z,76.92
2023-04-15T23:35:00.086Z,77.14
2023-04-15T23:37:26.848Z,77.67
2023-04-15T23:39:55.944Z,76.78
2023-04-15T23:42:24.291Z,74.73
2023-04-15T23:44:51.324Z,76.03
2023-04-15T23:47:18.244Z,77.25
2023-04-15T23:49:45.064Z,77.58
2023-04-15T23:52:11.887Z,77.90
2023-04-15T23:54:40.063Z,77.32
2023-04-15T23:57:06.867Z,76.70
2023-04-15T23:59:33.670Z,77.31
